createdAt,value
2022-11-02T00:04:57.190Z,6.4
2022-11-02T00:09:55.312Z,6.5
2022-11-02T00:14:53.373Z,6.5
2022-11-02T00:19:51.553Z,6.5
2022-11-02T00:24:49.930Z,6.4
2022-11-02T00:29:48.169Z,6.5
2022-11-02T00:34:46.403Z,6.4
2022-11-02T00:39:44.864Z,6.3
2022-11-02T00:44:42.910Z,6.3
2022-11-02T00:49:40.927Z,6.3
2022-11-02T00:54:38.864Z,6.2
2022-11-02T00:59:37.090Z,6.1
2022-11-02T01:04:34.990Z,6
2022-11-02T01:09:33.089Z,6
2022-11-02T01:14:31.236Z,5.9
2022-11-02T01:19:29.866Z,5.9
2022-11-02T01:24:28.246Z,5.8
2022-11-02T01:29:26.389Z,5.8
2022-11-02T01:34:24.556Z,5.8
2022-11-02T01:39:22.611Z,5.7
2022-11-02T01:44:20.826Z,5.7
2022-11-02T01:49:18.955Z,5.7
2022-11-02T01:54:17.097Z,5.8
2022-11-02T01:59:15.243Z,5.6
2022-11-02T02:04:13.191Z,5.6
2022-11-02T02:09:11.307Z,5.5
2022-11-02T02:14:09.039Z,5.5
2022-11-02T02:19:07.366Z,5.4
2022-11-02T02:24:05.403Z,5.4
2022-11-02T02:29:03.633Z,5.3
2022-11-02T02:34:01.739Z,5.3
2022-11-02T02:38:59.918Z,5.2
2022-11-02T02:43:58.125Z,5.1
2022-11-02T02:48:56.292Z,5
2022-11-02T02:53:54.366Z,5
2022-11-02T02:58:52.845Z,5.1
2022-11-02T03:03:50.777Z,5.1
2022-11-02T03:08:48.854Z,4.9
2022-11-02T03:13:46.953Z,5.1
2022-11-02T03:18:45.151Z,5.2
2022-11-02T03:23:43.376Z,5.1
2022-11-02T03:28:41.394Z,5.1
2022-11-02T03:33:39.516Z,5
2022-11-02T03:38:37.694Z,5
2022-11-02T03:43:35.753Z,4.8
2022-11-02T03:48:33.696Z,4.7
2022-11-02T03:53:31.816Z,4.7
2022-11-02T03:58:29.970Z,4.7
2022-11-02T04:03:28.078Z,4.7
2022-11-02T04:08:26.344Z,4.6
2022-11-02T04:13:24.609Z,4.6
2022-11-02T04:18:22.762Z,4.6
2022-11-02T04:23:20.802Z,4.6
2022-11-02T04:28:18.986Z,4.6
2022-11-02T04:33:17.728Z,4.4
2022-11-02T04:38:15.968Z,4.4
2022-11-02T04:43:14.246Z,4.5
2022-11-02T04:48:12.707Z,4.6
2022-11-02T04:53:11.182Z,4.6
2022-11-02T04:58:09.672Z,4.7
2022-11-02T05:03:09.629Z,4.7
2022-11-02T05:08:06.474Z,4.8
2022-11-02T05:13:04.407Z,4.7
2022-11-02T05:18:03.228Z,4.8
2022-11-02T05:23:01.665Z,5.1
2022-11-02T05:27:59.933Z,5.4
2022-11-02T05:32:58.184Z,5.6
2022-11-02T05:37:56.677Z,5.8
2022-11-02T05:42:55.294Z,5.9
2022-11-02T05:47:53.730Z,6.3
2022-11-02T05:52:51.993Z,6.7
2022-11-02T05:57:51.038Z,7.1
2022-11-02T06:02:52.483Z,11
2022-11-02T06:07:54.374Z,14.2
2022-11-02T06:12:55.012Z,16.5
2022-11-02T06:17:55.176Z,18.4
2022-11-02T06:22:54.778Z,20
2022-11-02T06:27:54.695Z,21.2
2022-11-02T06:32:54.327Z,22.5
2022-11-02T06:37:53.972Z,23.4
2022-11-02T06:43:03.541Z,24.5
2022-11-02T06:47:52.090Z,25.6
2022-11-02T06:52:51.298Z,26.2
2022-11-02T06:57:50.172Z,27.1
2022-11-02T07:02:49.483Z,27.8
2022-11-02T07:07:48.457Z,28.6
2022-11-02T07:12:47.439Z,29.4
2022-11-02T07:17:46.163Z,29.8
2022-11-02T07:22:45.006Z,30.5
2022-11-02T07:27:43.787Z,31
2022-11-02T07:32:42.722Z,31.7
2022-11-02T07:37:41.514Z,32.2
2022-11-02T07:42:40.022Z,32.9
2022-11-02T07:47:38.477Z,33.2
2022-11-02T07:52:36.888Z,33.2
2022-11-02T07:57:35.497Z,34.5
2022-11-02T08:02:34.146Z,34.5
2022-11-02T08:07:32.291Z,34.5
2022-11-02T08:12:30.569Z,34.7
2022-11-02T08:17:28.829Z,35.1
2022-11-02T08:22:27.376Z,35.5
2022-11-02T08:27:25.590Z,35.4
2022-11-02T08:32:24.154Z,35.9
2022-11-02T08:37:22.757Z,36.7
2022-11-02T08:42:21.520Z,37
2022-11-02T08:47:19.782Z,37.6
2022-11-02T08:52:17.979Z,37.4
2022-11-02T08:57:16.340Z,37.7
2022-11-02T09:02:14.452Z,37.8
2022-11-02T09:07:12.964Z,38.8
2022-11-02T09:12:11.122Z,38.8
2022-11-02T09:17:09.123Z,38.2
2022-11-02T09:22:07.409Z,38.7
2022-11-02T09:27:05.436Z,38.9
2022-11-02T09:32:03.470Z,38.9
2022-11-02T09:37:01.763Z,39.4
2022-11-02T09:41:59.962Z,39.5
2022-11-02T09:47:28.223Z,39.8
2022-11-02T09:51:56.789Z,40
2022-11-02T09:56:54.845Z,40.1
2022-11-02T10:01:53.391Z,40.5
2022-11-02T10:06:51.796Z,41
2022-11-02T10:11:50.142Z,41.2
2022-11-02T10:16:48.245Z,41.3
2022-11-02T10:21:46.542Z,41.5
2022-11-02T10:26:44.469Z,41.5
2022-11-02T10:31:42.800Z,41.8
2022-11-02T10:36:41.188Z,41.9
2022-11-02T10:41:39.287Z,42.2
2022-11-02T10:46:37.080Z,41.9
2022-11-02T10:51:34.628Z,40.4
2022-11-02T10:56:31.985Z,39.6
2022-11-02T11:01:29.329Z,38.6
2022-11-02T11:06:26.357Z,37.6
2022-11-02T11:11:23.094Z,36.8
2022-11-02T11:16:20.641Z,35.6
2022-11-02T11:21:16.828Z,34.6
2022-11-02T11:26:13.803Z,33.5
2022-11-02T11:31:11.290Z,33.2
2022-11-02T11:36:09.256Z,33.1
2022-11-02T11:41:06.964Z,32.7
2022-11-02T11:46:06.685Z,32.5
2022-11-02T11:51:03.194Z,32.6
2022-11-02T11:56:01.342Z,32.5
2022-11-02T12:00:59.642Z,32.5
2022-11-02T12:05:58.369Z,32.9
2022-11-02T12:10:56.709Z,32.9
2022-11-02T12:15:54.989Z,32.8
2022-11-02T12:20:53.230Z,32.5
2022-11-02T12:25:51.217Z,32.3
2022-11-02T12:30:49.198Z,32.5
2022-11-02T12:35:47.395Z,32.4
2022-11-02T12:40:45.213Z,32
2022-11-02T12:45:42.881Z,31.1
2022-11-02T12:50:40.596Z,30.4
2022-11-02T12:55:38.913Z,29.8
2022-11-02T13:00:36.040Z,29.2
2022-11-02T13:05:33.605Z,28.3
2022-11-02T13:10:31.468Z,27.3
2022-11-02T13:15:28.860Z,26.8
2022-11-02T13:20:26.149Z,25.9
2022-11-02T13:25:23.488Z,24.7
2022-11-02T13:30:20.407Z,23.5
2022-11-02T13:35:17.662Z,22.5
2022-11-02T13:40:15.275Z,21.4
2022-11-02T13:45:15.333Z,21
2022-11-02T13:50:10.443Z,20.6
2022-11-02T13:55:09.596Z,20
2022-11-02T14:00:07.410Z,19.6
2022-11-02T14:05:05.345Z,19.3
2022-11-02T14:10:03.150Z,18.8
2022-11-02T14:15:01.280Z,18.4
2022-11-02T14:19:59.302Z,18.1
2022-11-02T14:24:57.351Z,17.8
2022-11-02T14:29:55.187Z,17.5
2022-11-02T14:34:53.007Z,17
2022-11-02T14:39:51.038Z,16.8
2022-11-02T14:44:49.020Z,16.4
2022-11-02T14:49:46.924Z,16.1
2022-11-02T14:54:44.867Z,15.8
2022-11-02T14:59:42.874Z,15.7
2022-11-02T15:04:40.753Z,15.4
2022-11-02T15:09:38.858Z,15.2
2022-11-02T15:14:37.041Z,15
2022-11-02T15:19:34.982Z,14.7
2022-11-02T15:24:32.932Z,14.4
2022-11-02T15:29:31.004Z,14.2
2022-11-02T15:34:29.341Z,14.2
2022-11-02T15:39:27.434Z,13.9
2022-11-02T15:44:25.537Z,13.7
2022-11-02T15:49:23.815Z,13.6
2022-11-02T15:54:21.820Z,13.4
2022-11-02T15:59:19.807Z,13.3
2022-11-02T16:04:17.761Z,13
2022-11-02T16:09:15.970Z,12.8
2022-11-02T16:14:13.886Z,12.7
2022-11-02T16:19:11.984Z,12.5
2022-11-02T16:24:09.985Z,12.4
2022-11-02T16:29:08.443Z,12.3
2022-11-02T16:34:06.760Z,12.3
2022-11-02T16:39:04.735Z,12.2
2022-11-02T16:44:02.734Z,12.1
2022-11-02T16:49:00.715Z,12
2022-11-02T16:53:58.825Z,12
2022-11-02T16:58:57.182Z,11.8
2022-11-02T17:03:55.129Z,11.6
2022-11-02T17:08:53.328Z,11.6
2022-11-02T17:13:51.193Z,11.5
2022-11-02T17:18:49.137Z,11.4
2022-11-02T17:23:47.244Z,11.3
2022-11-02T17:28:45.366Z,11.2
2022-11-02T17:33:43.896Z,10.8
2022-11-02T17:38:41.971Z,11.1
2022-11-02T17:43:39.962Z,11.1
2022-11-02T17:48:38.677Z,11
2022-11-02T17:53:36.640Z,10.9
2022-11-02T17:58:35.178Z,10.9
2022-11-02T18:03:33.419Z,10.9
2022-11-02T18:08:31.806Z,10.9
2022-11-02T18:13:29.916Z,10.8
2022-11-02T18:18:28.308Z,10.9
2022-11-02T18:23:26.539Z,10.8
2022-11-02T18:28:24.848Z,10.8
2022-11-02T18:33:22.987Z,10.8
2022-11-02T18:38:21.089Z,10.7
2022-11-02T18:43:19.537Z,10.7
2022-11-02T18:48:17.987Z,10.6
2022-11-02T18:53:16.242Z,10.5
2022-11-02T18:58:14.413Z,10.5
2022-11-02T19:03:12.645Z,10.5
2022-11-02T19:08:10.795Z,10.5
2022-11-02T19:13:08.787Z,10.3
2022-11-02T19:18:06.830Z,10.3
2022-11-02T19:23:05.008Z,10.3
2022-11-02T19:28:03.960Z,9.6
2022-11-02T19:33:01.457Z,10.3
2022-11-02T19:37:59.747Z,10.1
2022-11-02T19:42:57.739Z,10
2022-11-02T19:47:55.866Z,10
2022-11-02T19:52:54.133Z,10.1
2022-11-02T19:57:52.337Z,10.1
2022-11-02T20:02:50.579Z,10.2
2022-11-02T20:07:48.904Z,10.2
2022-11-02T20:12:47.106Z,9.8
2022-11-02T20:17:58.756Z,10.1
2022-11-02T20:22:46.441Z,9.9
2022-11-02T20:27:43.747Z,9.9
2022-11-02T20:32:41.876Z,9.9
2022-11-02T20:37:40.039Z,9.9
2022-11-02T20:42:38.322Z,9.9
2022-11-02T20:47:36.401Z,9.9
2022-11-02T20:52:34.649Z,9.9
2022-11-02T20:57:32.780Z,9.8
2022-11-02T21:02:30.731Z,9.7
2022-11-02T21:07:29.203Z,9.5
2022-11-02T21:12:27.321Z,9.4
2022-11-02T21:17:25.442Z,9.3
2022-11-02T21:22:23.977Z,9.2
2022-11-02T21:27:22.220Z,9
2022-11-02T21:32:20.684Z,8.9
2022-11-02T21:37:18.886Z,9
2022-11-02T21:42:17.101Z,9
2022-11-02T21:47:15.194Z,8.9
2022-11-02T21:52:13.371Z,9
2022-11-02T21:57:11.536Z,9.1
2022-11-02T22:02:09.877Z,9.2
2022-11-02T22:07:07.887Z,9.3
2022-11-02T22:12:06.021Z,9.4
2022-11-02T22:17:11.226Z,9.6
2022-11-02T22:22:02.292Z,9.8
2022-11-02T22:27:00.622Z,9.9
2022-11-02T22:31:58.906Z,10.1
2022-11-02T22:36:57.241Z,10.2
2022-11-02T22:41:55.381Z,10
2022-11-02T22:46:53.467Z,10
2022-11-02T22:51:51.448Z,9.8
2022-11-02T22:56:49.527Z,9.7
2022-11-02T23:01:47.545Z,8.9
2022-11-02T23:06:45.567Z,9.7
2022-11-02T23:11:43.810Z,9.6
2022-11-02T23:16:41.787Z,9.5
2022-11-02T23:21:39.945Z,9.3
2022-11-02T23:26:38.029Z,9.1
2022-11-02T23:31:35.900Z,9
2022-11-02T23:36:33.971Z,8.8
2022-11-02T23:41:32.060Z,8.7
2022-11-02T23:46:29.983Z,8.5
2022-11-02T23:51:28.057Z,8.6
2022-11-02T23:56:26.379Z,8.7
